Lolani — WDF3586 — position and weather

sailwx.info

Track history (hours):
 
Tides and Currents Weather Stations Pressure Air Temp Water Temp Dewpoint Dewpoint Depression Visibility Wind Speed Wind Dir Waves Ship Positions

Lolani

Owner: Scripps, Edward W, Bellevue, WA. More information available from US FCC via Universal Licensing System and Coast Guard Vessel Documentation Center.

Last reported at 2015-Aug-16 22:33 UTC. Time now 2015-Sep-01 16:12 UTC.
Position N 48°40' W 123°24'.
Warning: this ship's position is 15 days out of date.

Type: Sailing vessel. MMSI: 316026565.

Date/timePositionNaut miles runAvg speedWind from/ knotsBaromVisibWave heightAir tempDewpointWater temp
2015-Aug-16 22:33N 48°40' W 123°24'0 0.0
2015-Aug-16 21:33N 48°40' W 123°24'4 4.2
2015-Aug-16 20:33N 48°44' W 123°21'28 0.6
2015-Aug-14 23:31N 49°08' W 123°43'1 0.9
2015-Aug-14 22:28N 49°07' W 123°42'0 0.0
2015-Aug-14 21:31N 49°07' W 123°42'2 2.3
2015-Aug-14 20:32N 49°10' W 123°42'7 6.8
2015-Aug-14 19:27N 49°14' W 123°51'7 7.3
2015-Aug-14 18:33N 49°17' W 124°00'7 7.3
2015-Aug-14 17:33N 49°20' W 124°10'7 7.1
2015-Aug-14 16:33N 49°24' W 124°19'7 7.1
2015-Aug-14 15:33N 49°28' W 124°29'6 0.3
2015-Aug-13 20:31N 49°32' W 124°35'8 6.9
2015-Aug-13 19:25N 49°36' W 124°44'6 6.7
2015-Aug-13 18:34N 49°39' W 124°52'11 0.4
2015-Aug-12 17:33N 49°50' W 124°56'  
2015-Aug-07 15:25N 50°54' W 127°17'  
Track history (hours):
 
Tides and Currents Weather Stations Pressure Air Temp Water Temp Dewpoint Dewpoint Depression Visibility Wind Speed Wind Dir Waves Ship Positions

Lolani

Owner: Scripps, Edward W, Bellevue, WA. More information available from US FCC via Universal Licensing System and Coast Guard Vessel Documentation Center.

Last reported at 2015-Aug-16 22:33 UTC. Time now 2015-Sep-01 16:12 UTC.
Position N 48°40' W 123°24'.
Warning: this ship's position is 15 days out of date.

Type: Sailing vessel. MMSI: 316026565.

Date/timePositionNaut miles runAvg speedWind from/ knotsBaromVisibWave heightAir tempDewpointWater temp
2015-Aug-16 22:33N 48°40' W 123°24'0 0.0
2015-Aug-16 21:33N 48°40' W 123°24'4 4.2
2015-Aug-16 20:33N 48°44' W 123°21'28 0.6
2015-Aug-14 23:31N 49°08' W 123°43'1 0.9
2015-Aug-14 22:28N 49°07' W 123°42'0 0.0
2015-Aug-14 21:31N 49°07' W 123°42'2 2.3
2015-Aug-14 20:32N 49°10' W 123°42'7 6.8
2015-Aug-14 19:27N 49°14' W 123°51'7 7.3
2015-Aug-14 18:33N 49°17' W 124°00'7 7.3
2015-Aug-14 17:33N 49°20' W 124°10'7 7.1
2015-Aug-14 16:33N 49°24' W 124°19'7 7.1
2015-Aug-14 15:33N 49°28' W 124°29'6 0.3
2015-Aug-13 20:31N 49°32' W 124°35'8 6.9
2015-Aug-13 19:25N 49°36' W 124°44'6 6.7
2015-Aug-13 18:34N 49°39' W 124°52'11 0.4
2015-Aug-12 17:33N 49°50' W 124°56'  
2015-Aug-07 15:25N 50°54' W 127°17'  

Dump ship's entire track history